Time;durP1;ratioP1;P1;durP2;ratioP2;P2;SDS_P1;SDS_P2;PMS_P1;PMS_P2;Temp;Humidity;BMP_temperature;BMP_pressure;BME280_temperature;BME280_humidity;BME280_pressure;Samples;Min_cycle;Max_cycle;Signal;HPM_P1;HPM_P2
2022/02/23 00:02:45;;;;;;;17.30;7.80;;;;;;;1.65;78.43;99422.83;214599;1276;140656;-71
2022/02/23 00:07:49;;;;;;;33.30;8.30;;;;;;;1.65;78.06;99412.23;214564;1276;141090;-72
2022/02/23 00:12:53;;;;;;;23.10;9.60;;;;;;;1.64;77.85;99402.60;213890;1277;141309;-70
2022/02/23 00:17:56;;;;;;;19.10;7.60;;;;;;;1.65;77.92;99399.14;215046;1276;141641;-74
2022/02/23 00:23:01;;;;;;;17.60;9.20;;;;;;;1.71;77.96;99397.55;215230;1277;140353;-74
2022/02/23 00:28:05;;;;;;;24.50;8.50;;;;;;;1.80;78.19;99395.30;215888;1276;140085;-74
2022/02/23 00:33:10;;;;;;;18.60;7.90;;;;;;;1.86;77.63;99391.94;215646;1276;140771;-78
2022/02/23 00:38:14;;;;;;;25.10;7.00;;;;;;;1.90;77.59;99392.46;215630;1276;139915;-77
2022/02/23 00:43:19;;;;;;;21.40;7.70;;;;;;;1.94;77.65;99385.11;215662;1275;140826;-78
2022/02/23 00:48:27;;;;;;;8.20;3.50;;;;;;;1.97;77.73;99380.16;215641;1276;140854;-77
2022/02/23 00:53:31;;;;;;;17.40;4.90;;;;;;;1.99;77.58;99367.09;214982;1275;141365;-76
2022/02/23 00:58:35;;;;;;;11.90;4.20;;;;;;;2.03;77.25;99357.73;213979;1277;140740;-76
2022/02/23 01:03:39;;;;;;;16.20;4.70;;;;;;;2.06;77.10;99355.27;214137;1276;140737;-76
2022/02/23 01:08:43;;;;;;;19.60;5.40;;;;;;;2.09;77.57;99350.72;213464;1277;232047;-75
2022/02/23 01:13:49;;;;;;;14.90;7.00;;;;;;;2.14;77.05;99343.03;214156;1276;140803;-75
2022/02/23 01:18:54;;;;;;;12.00;6.10;;;;;;;2.16;77.05;99322.04;214230;1277;140259;-73
2022/02/23 01:23:58;;;;;;;13.60;6.10;;;;;;;2.16;76.88;99302.66;213966;1277;140726;-71
2022/02/23 01:29:02;;;;;;;17.10;7.20;;;;;;;2.15;76.85;99293.79;212903;1277;140468;-73
2022/02/23 01:34:06;;;;;;;18.30;6.70;;;;;;;2.17;76.73;99290.90;214080;1277;140599;-72
2022/02/23 01:39:11;;;;;;;19.30;6.70;;;;;;;2.19;76.89;99292.41;213540;1277;142556;-74
2022/02/23 01:44:14;;;;;;;19.10;6.20;;;;;;;2.20;76.65;99293.64;213550;1277;142199;-73
2022/02/23 01:49:18;;;;;;;13.20;4.20;;;;;;;2.22;76.74;99289.20;213574;1277;142095;-74
2022/02/23 01:54:22;;;;;;;18.30;7.60;;;;;;;2.23;76.52;99278.61;213135;1277;140234;-74
2022/02/23 01:59:27;;;;;;;19.40;5.30;;;;;;;2.22;76.85;99279.20;215658;1276;140946;-78
2022/02/23 02:04:32;;;;;;;13.10;7.30;;;;;;;2.23;76.87;99275.61;214801;1275;140114;-78
2022/02/23 02:09:36;;;;;;;15.20;6.70;;;;;;;2.23;77.12;99269.27;214930;1277;140866;-74
2022/02/23 02:14:40;;;;;;;18.80;8.00;;;;;;;2.24;77.28;99269.55;214554;1277;140961;-72
2022/02/23 02:19:44;;;;;;;12.60;4.50;;;;;;;2.23;77.82;99270.06;215023;1276;141105;-73
2022/02/23 02:24:50;;;;;;;14.50;5.80;;;;;;;2.17;77.71;99266.38;215718;1276;141287;-73
2022/02/23 02:29:55;;;;;;;18.00;6.60;;;;;;;2.12;77.98;99263.70;215033;1275;514898;-70
2022/02/23 02:34:59;;;;;;;89.50;37.90;;;;;;;2.11;78.74;99259.45;215426;1276;140241;-76
2022/02/23 02:40:03;;;;;;;17.70;7.10;;;;;;;2.12;78.63;99252.46;215885;1276;140370;-77
2022/02/23 02:45:07;;;;;;;15.00;9.70;;;;;;;2.13;79.17;99244.01;215737;1276;140157;-78
2022/02/23 02:50:13;;;;;;;5.70;4.50;;;;;;;2.08;78.64;99239.98;215445;1277;140664;-77
2022/02/23 02:55:16;;;;;;;13.80;5.70;;;;;;;2.01;78.95;99238.74;214881;1276;210688;-76
2022/02/23 03:00:19;;;;;;;11.40;5.10;;;;;;;1.98;79.40;99234.91;215155;1277;142215;-74
2022/02/23 03:05:23;;;;;;;13.90;5.10;;;;;;;1.95;79.52;99233.39;214934;1277;140836;-73
2022/02/23 03:10:27;;;;;;;11.50;6.10;;;;;;;1.91;79.32;99226.44;214617;1276;141243;-72
2022/02/23 03:15:32;;;;;;;14.10;7.20;;;;;;;1.85;79.34;99219.33;214120;1276;141006;-75
2022/02/23 03:20:36;;;;;;;20.00;9.90;;;;;;;1.83;80.02;99212.90;213972;1276;140258;-67
2022/02/23 03:25:41;;;;;;;12.70;5.80;;;;;;;1.83;79.95;99208.37;214388;1276;139871;-76
2022/02/23 03:30:45;;;;;;;12.90;5.40;;;;;;;1.84;80.59;99202.23;213253;1277;140200;-76
2022/02/23 03:35:49;;;;;;;15.80;6.60;;;;;;;1.83;80.71;99203.84;214199;1276;140314;-75
2022/02/23 03:40:53;;;;;;;15.40;6.80;;;;;;;1.86;81.01;99199.71;214740;1276;141271;-70
2022/02/23 03:45:57;;;;;;;16.10;6.60;;;;;;;1.91;80.94;99198.02;214474;1276;140415;-76
2022/02/23 03:51:01;;;;;;;6.20;3.10;;;;;;;1.97;81.07;99205.51;214851;1276;140073;-75
2022/02/23 03:56:38;;;;;;;15.60;6.00;;;;;;;2.01;81.48;99203.04;212801;1277;139780;-73
2022/02/23 04:01:33;;;;;;;14.70;6.70;;;;;;;2.09;81.53;99213.94;214450;1276;141193;-73
2022/02/23 04:06:37;;;;;;;12.20;5.30;;;;;;;2.17;81.59;99217.97;214963;1277;140545;-77
2022/02/23 04:11:41;;;;;;;8.60;4.30;;;;;;;2.25;81.99;99214.70;214003;1277;140351;-71
2022/02/23 04:16:45;;;;;;;19.50;6.10;;;;;;;2.32;82.01;99214.66;213765;1276;140609;-75
2022/02/23 04:21:49;;;;;;;11.60;5.00;;;;;;;2.37;81.88;99215.63;214818;1276;140173;-75
2022/02/23 04:26:53;;;;;;;13.30;5.20;;;;;;;2.44;82.11;99210.96;213743;1276;141662;-71
2022/02/23 04:31:58;;;;;;;8.80;4.10;;;;;;;2.49;82.57;99209.91;215800;1276;141702;-76
2022/02/23 04:37:02;;;;;;;8.50;4.50;;;;;;;2.56;82.58;99208.27;215766;1276;140399;-75
2022/02/23 04:42:09;;;;;;;7.30;4.80;;;;;;;2.65;82.71;99207.02;215569;1276;140699;-73
2022/02/23 04:47:14;;;;;;;7.80;4.00;;;;;;;2.73;82.88;99206.28;215675;1276;141561;-74
2022/02/23 04:52:17;;;;;;;4.70;3.20;;;;;;;2.82;82.93;99215.48;215230;1275;140743;-77
2022/02/23 04:57:22;;;;;;;10.50;4.40;;;;;;;2.89;83.22;99220.85;215078;1276;142245;-75
2022/02/23 05:02:26;;;;;;;6.20;3.80;;;;;;;2.98;83.39;99236.16;214512;1277;141770;-74
2022/02/23 05:07:31;;;;;;;6.90;3.70;;;;;;;3.07;83.54;99247.64;214825;1276;140340;-74
2022/02/23 05:12:39;;;;;;;6.20;2.80;;;;;;;3.14;84.07;99250.65;214485;1276;140952;-73
2022/02/23 05:17:49;;;;;;;6.40;3.80;;;;;;;3.22;84.14;99265.20;213549;1276;140075;-74
2022/02/23 05:22:53;;;;;;;8.70;3.90;;;;;;;3.29;84.14;99278.52;213927;1276;139809;-73
2022/02/23 05:27:58;;;;;;;19.20;3.90;;;;;;;3.34;84.31;99283.67;213422;1276;140616;-73
2022/02/23 05:33:01;;;;;;;9.00;2.70;;;;;;;3.38;84.13;99298.01;214327;1276;140258;-75
2022/02/23 05:38:07;;;;;;;4.10;2.10;;;;;;;3.41;84.15;99314.02;213748;1276;140075;-73
2022/02/23 05:43:11;;;;;;;11.80;4.00;;;;;;;3.43;83.81;99332.23;213717;1277;139816;-74
2022/02/23 05:48:16;;;;;;;16.80;4.30;;;;;;;3.44;83.93;99338.23;214173;1276;141211;-73
2022/02/23 05:53:20;;;;;;;9.70;5.50;;;;;;;3.44;83.67;99351.86;213939;1276;140919;-75
2022/02/23 05:58:25;;;;;;;7.50;3.30;;;;;;;3.46;83.63;99360.47;213629;1275;140250;-75
2022/02/23 06:03:29;;;;;;;14.00;3.10;;;;;;;3.47;83.50;99373.36;213949;1277;140119;-77
2022/02/23 06:08:32;;;;;;;12.70;4.20;;;;;;;3.49;83.46;99383.98;214615;1276;140005;-79
2022/02/23 06:13:36;;;;;;;12.30;2.90;;;;;;;3.53;83.40;99393.05;214943;1275;140484;-76
2022/02/23 06:18:41;;;;;;;10.80;2.40;;;;;;;3.58;83.23;99406.98;213882;1277;140556;-76
2022/02/23 06:23:45;;;;;;;6.90;2.50;;;;;;;3.64;82.92;99416.82;214761;1276;140682;-75
2022/02/23 06:28:50;;;;;;;12.50;3.10;;;;;;;3.68;82.87;99425.84;214734;1276;139856;-79
2022/02/23 06:33:54;;;;;;;19.40;4.70;;;;;;;3.76;82.75;99442.84;215107;1273;142188;-76
2022/02/23 06:39:00;;;;;;;15.30;3.00;;;;;;;3.85;82.44;99457.52;214662;1276;143230;-76
2022/02/23 06:44:05;;;;;;;8.30;2.50;;;;;;;3.92;82.26;99465.58;215512;1276;142118;-75
2022/02/23 06:49:10;;;;;;;12.60;6.30;;;;;;;4.00;81.97;99481.70;215815;1275;141934;-75
2022/02/23 06:54:15;;;;;;;6.60;2.70;;;;;;;4.05;81.32;99485.32;215994;1276;141169;-73
2022/02/23 06:59:19;;;;;;;11.90;3.70;;;;;;;4.07;81.15;99499.48;215748;1276;140821;-76
2022/02/23 07:04:23;;;;;;;14.60;4.50;;;;;;;4.06;80.95;99522.90;215237;1276;140057;-72
2022/02/23 07:09:27;;;;;;;15.70;3.20;;;;;;;4.10;80.77;99537.70;215470;1276;140382;-73
2022/02/23 07:14:31;;;;;;;6.20;2.40;;;;;;;4.19;80.68;99546.81;215194;1275;140364;-71
2022/02/23 07:19:36;;;;;;;10.00;2.60;;;;;;;4.24;80.22;99553.86;215233;1276;139697;-73
2022/02/23 07:24:41;;;;;;;6.30;2.00;;;;;;;4.31;80.32;99566.89;215599;1276;140135;-76
2022/02/23 07:29:46;;;;;;;21.30;6.00;;;;;;;4.41;80.19;99577.73;215176;1276;141350;-74
2022/02/23 07:34:50;;;;;;;11.30;4.10;;;;;;;4.39;80.06;99587.10;213076;1277;141536;-72
2022/02/23 07:40:00;;;;;;;7.10;2.20;;;;;;;4.30;80.10;99604.94;214711;1276;141902;-73
2022/02/23 07:45:24;;;;;;;12.00;5.40;;;;;;;4.20;80.08;99623.66;213966;1276;140804;-74
2022/02/23 07:50:31;;;;;;;7.90;2.00;;;;;;;4.28;80.38;99636.99;213758;1276;140370;-73
2022/02/23 07:55:37;;;;;;;14.50;4.20;;;;;;;4.28;80.08;99644.83;213329;1276;141258;-75
2022/02/23 08:00:41;;;;;;;8.30;3.10;;;;;;;4.26;80.27;99644.23;213276;1275;139902;-73
2022/02/23 08:05:44;;;;;;;8.90;3.40;;;;;;;4.29;80.46;99654.01;213076;1276;140381;-72
2022/02/23 08:10:49;;;;;;;9.10;3.30;;;;;;;4.31;80.43;99654.98;214431;1276;140782;-71
2022/02/23 08:21:30;;;;;;;13.80;3.10;;;;;;;4.42;80.39;99671.73;213257;1277;141890;-76
2022/02/23 08:26:33;;;;;;;9.30;4.50;;;;;;;4.51;80.32;99672.34;213753;1274;141192;-75
2022/02/23 08:31:38;;;;;;;9.10;4.00;;;;;;;4.62;80.31;99684.89;213683;1277;141714;-76
2022/02/23 08:36:41;;;;;;;8.80;2.30;;;;;;;4.76;80.14;99682.91;214294;1275;140366;-72
2022/02/23 08:41:45;;;;;;;9.40;4.20;;;;;;;4.98;79.89;99687.45;213727;1276;140235;-76
2022/02/23 08:46:56;;;;;;;10.40;2.90;;;;;;;5.18;79.51;99686.84;215670;1276;140913;-72
2022/02/23 08:52:01;;;;;;;15.40;2.20;;;;;;;5.56;79.48;99683.61;215519;1276;141331;-74
2022/02/23 08:57:06;;;;;;;5.30;2.40;;;;;;;6.02;78.83;99694.30;215697;1274;142161;-69
2022/02/23 09:02:10;;;;;;;8.50;2.30;;;;;;;6.27;77.86;99703.27;215770;1276;140733;-73
2022/02/23 09:07:15;;;;;;;6.00;2.10;;;;;;;6.38;77.31;99720.59;215278;1276;142410;-78
2022/02/23 09:12:23;;;;;;;7.20;2.50;;;;;;;6.43;77.00;99732.10;215383;1276;139950;-71
2022/02/23 09:17:28;;;;;;;16.10;2.60;;;;;;;6.38;76.63;99739.78;213336;1275;139822;-76
2022/02/23 09:22:33;;;;;;;4.20;2.20;;;;;;;6.32;76.38;99738.52;213498;1275;140602;-71
2022/02/23 09:27:40;;;;;;;7.90;2.50;;;;;;;6.36;76.39;99741.00;213660;1276;140570;-74
2022/02/23 09:32:49;;;;;;;8.50;4.20;;;;;;;6.44;76.22;99740.64;214910;1276;141674;-73
2022/02/23 09:37:56;;;;;;;15.00;2.90;;;;;;;6.62;76.05;99758.25;213040;1276;141441;-76
2022/02/23 09:43:00;;;;;;;6.60;4.20;;;;;;;6.77;75.67;99753.30;213874;1276;141510;-77
2022/02/23 09:48:06;;;;;;;10.60;2.80;;;;;;;6.85;75.38;99758.08;214085;1276;140633;-75
2022/02/23 09:53:11;;;;;;;10.50;2.80;;;;;;;6.83;74.85;99770.48;213670;1276;142396;-72
2022/02/23 09:58:16;;;;;;;9.40;1.90;;;;;;;6.73;73.97;99761.29;214514;1275;140697;-77
2022/02/23 10:03:21;;;;;;;11.10;2.30;;;;;;;6.83;73.87;99767.26;214452;1276;139625;-77
2022/02/23 10:08:37;;;;;;;4.90;1.70;;;;;;;6.99;73.66;99781.64;214018;1276;140667;-78
2022/02/23 10:13:52;;;;;;;5.70;2.00;;;;;;;7.07;73.39;99787.01;214693;1276;142116;-77
2022/02/23 10:19:07;;;;;;;10.30;2.80;;;;;;;7.12;72.51;99796.70;214545;1276;141238;-77
2022/02/23 10:24:25;;;;;;;8.60;1.90;;;;;;;7.07;72.54;99814.86;213320;1276;141786;-70
2022/02/23 10:29:47;;;;;;;4.40;2.90;;;;;;;7.03;71.62;99826.88;213622;1276;139771;-74
2022/02/23 10:35:01;;;;;;;6.50;2.20;;;;;;;6.81;71.52;99832.29;215032;1276;140594;-77
2022/02/23 10:40:12;;;;;;;3.90;1.40;;;;;;;6.60;71.23;99849.05;214086;1276;139638;-76
2022/02/23 10:45:20;;;;;;;13.20;3.90;;;;;;;6.43;71.06;99862.91;214678;1276;140857;-78
2022/02/23 10:50:28;;;;;;;11.00;3.70;;;;;;;6.39;71.61;99865.70;215917;1276;141071;-80
2022/02/23 10:55:34;;;;;;;6.90;2.30;;;;;;;6.33;70.99;99876.20;215050;1276;140446;-73
2022/02/23 11:00:41;;;;;;;14.00;2.70;;;;;;;6.27;70.86;99880.10;215456;1275;139902;-78
2022/02/23 11:05:50;;;;;;;7.20;2.20;;;;;;;6.24;70.96;99880.83;215676;1276;139716;-82
2022/02/23 11:10:56;;;;;;;10.30;2.20;;;;;;;6.19;70.58;99884.16;214856;1276;141722;-80
2022/02/23 11:16:02;;;;;;;7.10;2.40;;;;;;;6.19;70.57;99895.60;215202;1276;141674;-79
2022/02/23 11:21:07;;;;;;;11.50;1.80;;;;;;;6.20;70.45;99894.17;215656;1276;140818;-81
2022/02/23 11:26:16;;;;;;;9.90;2.80;;;;;;;6.17;70.12;99891.96;215318;1276;140348;-78
2022/02/23 11:31:20;;;;;;;3.40;1.80;;;;;;;6.20;70.37;99900.16;213417;1276;139214;-74
2022/02/23 11:36:33;;;;;;;8.50;3.30;;;;;;;6.19;69.52;99911.48;213204;1276;139722;-78
2022/02/23 11:41:39;;;;;;;12.80;4.60;;;;;;;6.14;69.37;99923.97;214221;1276;139257;-79
2022/02/23 11:47:07;;;;;;;5.30;1.60;;;;;;;6.20;69.39;99925.57;213304;1276;140081;-77
2022/02/23 11:52:14;;;;;;;5.60;2.20;;;;;;;6.32;69.78;99934.92;214277;1276;139876;-77
2022/02/23 11:57:47;;;;;;;9.60;2.50;;;;;;;6.41;69.20;99930.20;213974;1276;140495;-77
2022/02/23 12:03:00;;;;;;;5.30;1.80;;;;;;;6.51;68.91;99934.77;214334;1276;141476;-76
2022/02/23 12:08:05;;;;;;;10.80;3.00;;;;;;;6.56;68.84;99936.27;214103;1276;140079;-79
2022/02/23 12:13:37;;;;;;;5.40;2.00;;;;;;;6.61;68.58;99938.60;213399;1276;139160;-78
2022/02/23 12:18:49;;;;;;;9.30;2.30;;;;;;;6.81;68.66;99950.57;214537;1275;139575;-78
2022/02/23 12:24:01;;;;;;;16.30;2.90;;;;;;;6.85;68.16;99959.02;213962;1276;139872;-80
2022/02/23 12:29:09;;;;;;;14.50;3.60;;;;;;;6.99;68.16;99971.39;213431;1276;140159;-75
2022/02/23 12:34:18;;;;;;;8.70;2.90;;;;;;;7.16;68.18;99975.86;214883;1275;141020;-80
2022/02/23 12:39:43;;;;;;;14.60;2.60;;;;;;;7.22;67.70;99977.97;214108;1276;141655;-79
2022/02/23 12:44:49;;;;;;;8.80;2.50;;;;;;;7.21;67.51;99981.11;214707;1276;141086;-75
2022/02/23 12:50:12;;;;;;;13.70;2.20;;;;;;;7.21;67.57;99978.83;214459;1276;141236;-78
2022/02/23 12:55:19;;;;;;;15.70;3.00;;;;;;;7.14;67.04;99988.95;214826;1276;139580;-77
2022/02/23 13:00:25;;;;;;;4.30;2.20;;;;;;;7.07;67.04;99989.73;214899;1276;139629;-76
2022/02/23 13:05:30;;;;;;;4.70;1.70;;;;;;;7.02;66.88;99995.54;214814;1276;141374;-79
2022/02/23 13:10:34;;;;;;;10.80;3.50;;;;;;;7.01;66.89;100000.77;215664;1276;143746;-79
2022/02/23 13:15:39;;;;;;;7.90;3.10;;;;;;;7.04;66.69;100004.65;214499;1276;141187;-73
2022/02/23 13:20:46;;;;;;;10.90;2.50;;;;;;;7.10;66.97;100009.34;214465;1276;141343;-79
2022/02/23 13:25:50;;;;;;;9.30;3.10;;;;;;;7.17;66.57;100012.77;213179;1276;140994;-80
2022/02/23 13:30:59;;;;;;;6.50;2.50;;;;;;;7.20;66.20;100020.02;214218;1276;139971;-79
2022/02/23 13:36:02;;;;;;;8.20;4.60;;;;;;;7.16;65.80;100023.54;215002;1276;139726;-78
2022/02/23 13:41:16;;;;;;;7.20;2.20;;;;;;;7.15;66.06;100032.59;213032;1276;140870;-77
2022/02/23 13:46:34;;;;;;;10.00;3.20;;;;;;;7.30;66.27;100037.73;214571;1276;140345;-75
2022/02/23 13:51:43;;;;;;;10.80;2.60;;;;;;;7.36;66.33;100045.08;212967;1276;139496;-77
2022/02/23 13:56:49;;;;;;;4.80;2.10;;;;;;;7.28;65.20;100037.98;214862;1276;141294;-73
2022/02/23 14:02:15;;;;;;;11.70;3.80;;;;;;;7.24;65.03;100039.77;214396;1276;139809;-81
2022/02/23 14:07:25;;;;;;;13.00;5.40;;;;;;;7.37;65.24;100049.66;213405;1277;140029;-79
2022/02/23 14:12:31;;;;;;;5.00;2.10;;;;;;;7.49;64.62;100047.03;214147;1276;140338;-74
2022/02/23 14:17:37;;;;;;;2.90;1.60;;;;;;;7.60;64.22;100048.98;212949;1277;140120;-77
2022/02/23 14:22:46;;;;;;;5.20;2.00;;;;;;;7.67;64.07;100057.96;213124;1277;140243;-76
2022/02/23 14:27:56;;;;;;;8.00;3.50;;;;;;;7.69;63.86;100063.60;212866;1278;139623;-77
2022/02/23 14:33:04;;;;;;;5.50;1.60;;;;;;;7.53;63.95;100069.64;213736;1277;768093;-78
2022/02/23 14:38:11;;;;;;;5.50;2.40;;;;;;;7.54;64.54;100082.48;213567;1277;139180;-74
2022/02/23 14:43:16;;;;;;;6.70;2.20;;;;;;;7.50;64.23;100082.45;213822;1278;139208;-70
2022/02/23 14:48:21;;;;;;;6.70;2.20;;;;;;;7.40;63.53;100098.86;213028;1277;139369;-69
2022/02/23 14:53:29;;;;;;;12.60;2.80;;;;;;;7.36;63.56;100120.93;214322;1277;141225;-77
2022/02/23 14:58:35;;;;;;;5.80;1.80;;;;;;;7.39;63.34;100132.03;213535;1277;139730;-78
2022/02/23 15:03:40;;;;;;;7.40;2.50;;;;;;;7.33;63.34;100143.91;214257;1277;143543;-81
2022/02/23 15:08:48;;;;;;;3.90;1.80;;;;;;;7.23;63.00;100148.89;214702;1277;140445;-77
2022/02/23 15:13:54;;;;;;;5.30;1.80;;;;;;;7.06;62.99;100157.02;215535;1276;141249;-79
2022/02/23 15:18:58;;;;;;;4.40;2.10;;;;;;;7.03;63.06;100163.50;215302;1276;141910;-79
2022/02/23 15:24:04;;;;;;;8.80;2.80;;;;;;;7.04;63.42;100170.35;215947;1276;139606;-79
2022/02/23 15:29:09;;;;;;;5.40;2.10;;;;;;;7.01;63.14;100181.80;215357;1277;139820;-76
2022/02/23 15:34:15;;;;;;;4.00;1.70;;;;;;;6.91;63.12;100194.58;215784;1277;139585;-77
2022/02/23 15:39:21;;;;;;;5.70;2.00;;;;;;;6.78;63.18;100205.45;214891;1276;140855;-76
2022/02/23 15:44:29;;;;;;;3.70;1.90;;;;;;;6.69;63.37;100211.40;214341;1277;139504;-75
2022/02/23 15:49:33;;;;;;;6.50;3.20;;;;;;;6.56;63.31;100217.92;213827;1276;150073;-75
2022/02/23 15:54:40;;;;;;;10.80;3.40;;;;;;;6.36;63.22;100228.16;214985;1276;139255;-77
2022/02/23 15:59:46;;;;;;;10.10;2.70;;;;;;;6.18;63.16;100229.98;214102;1276;139912;-78
2022/02/23 16:04:54;;;;;;;7.30;2.60;;;;;;;6.04;63.07;100240.69;214129;1276;139517;-77
2022/02/23 16:09:59;;;;;;;13.70;5.90;;;;;;;5.89;63.34;100251.29;212840;1276;139461;-77
2022/02/23 16:15:03;;;;;;;9.70;2.90;;;;;;;5.73;63.53;100256.12;213264;1277;140169;-73
2022/02/23 16:20:09;;;;;;;10.90;4.00;;;;;;;5.61;63.56;100263.94;213130;1277;139643;-76
2022/02/23 16:25:13;;;;;;;12.40;3.40;;;;;;;5.50;63.39;100271.31;212874;1276;139278;-75
2022/02/23 16:30:18;;;;;;;5.70;2.20;;;;;;;5.37;63.53;100281.61;213298;1275;140063;-76
2022/02/23 16:35:25;;;;;;;10.00;3.40;;;;;;;5.26;63.65;100289.89;212929;1276;141333;-79
2022/02/23 16:40:33;;;;;;;9.00;4.00;;;;;;;5.18;63.80;100299.38;213636;1276;139632;-77
2022/02/23 16:45:39;;;;;;;3.00;2.10;;;;;;;5.13;63.93;100314.07;213913;1276;143457;-76
2022/02/23 16:50:45;;;;;;;6.70;2.60;;;;;;;5.12;64.02;100314.95;212977;1276;210778;-77
2022/02/23 16:55:50;;;;;;;5.80;3.20;;;;;;;5.09;64.00;100323.91;213684;1277;139283;-76
2022/02/23 17:00:55;;;;;;;7.80;3.40;;;;;;;5.02;64.01;100329.96;214315;1276;140494;-76
2022/02/23 17:05:59;;;;;;;3.90;2.70;;;;;;;4.90;64.12;100335.82;213488;1276;139358;-74
2022/02/23 17:11:07;;;;;;;9.40;3.50;;;;;;;4.79;64.27;100343.84;213936;1277;139346;-74
2022/02/23 17:16:14;;;;;;;7.20;2.60;;;;;;;4.70;64.48;100349.48;213004;1277;141095;-74
2022/02/23 17:21:20;;;;;;;10.00;4.00;;;;;;;4.60;64.60;100364.09;213517;1276;140381;-73
2022/02/23 17:26:25;;;;;;;8.60;2.90;;;;;;;4.51;64.71;100367.27;215559;1276;142013;-76
2022/02/23 17:31:29;;;;;;;7.10;3.40;;;;;;;4.43;65.01;100378.61;214884;1275;142418;-72
2022/02/23 17:36:37;;;;;;;13.80;3.40;;;;;;;4.38;65.01;100382.99;213282;1277;141285;-69
2022/02/23 17:41:41;;;;;;;5.70;2.40;;;;;;;4.32;65.26;100390.70;215638;1276;142322;-80
2022/02/23 17:46:47;;;;;;;7.60;3.00;;;;;;;4.29;65.37;100392.50;215550;1276;141220;-76
2022/02/23 17:52:21;;;;;;;12.40;4.20;;;;;;;4.24;65.41;100400.02;214171;1277;140910;-76
2022/02/23 17:57:27;;;;;;;8.60;3.40;;;;;;;4.20;65.59;100412.27;214683;1277;140714;-73
2022/02/23 18:02:33;;;;;;;15.20;5.60;;;;;;;4.15;65.59;100415.00;213969;1276;142082;-76
2022/02/23 18:07:57;;;;;;;12.20;3.80;;;;;;;4.09;65.74;100418.30;215232;1276;141634;-75
2022/02/23 18:13:01;;;;;;;9.50;5.00;;;;;;;4.01;65.84;100430.95;214257;1276;142072;-77
2022/02/23 18:18:06;;;;;;;18.00;8.20;;;;;;;3.96;65.87;100443.55;213535;1277;140080;-70
2022/02/23 18:23:10;;;;;;;11.00;6.70;;;;;;;3.90;66.15;100453.65;213018;1277;141345;-76
2022/02/23 18:28:14;;;;;;;9.30;3.70;;;;;;;3.83;66.31;100461.23;213923;1277;141077;-76
2022/02/23 18:33:18;;;;;;;12.10;5.00;;;;;;;3.77;66.32;100467.33;212986;1276;142109;-76
2022/02/23 18:38:23;;;;;;;12.00;5.00;;;;;;;3.71;66.59;100473.94;214739;1277;140560;-71
2022/02/23 18:43:26;;;;;;;21.80;5.30;;;;;;;3.67;66.65;100483.39;214088;1277;140521;-74
2022/02/23 18:48:34;;;;;;;11.90;5.50;;;;;;;3.60;66.78;100488.87;214037;1277;142009;-72
2022/02/23 18:53:38;;;;;;;7.40;4.30;;;;;;;3.53;66.83;100489.29;212911;1277;140874;-75
2022/02/23 18:58:42;;;;;;;9.50;4.50;;;;;;;3.49;66.99;100498.03;212908;1277;139899;-74
2022/02/23 19:03:46;;;;;;;10.50;5.00;;;;;;;3.43;67.15;100503.05;213856;1276;140189;-74
2022/02/23 19:08:51;;;;;;;9.10;5.50;;;;;;;3.36;66.98;100510.00;212928;1277;139932;-75
2022/02/23 19:13:56;;;;;;;21.40;6.60;;;;;;;3.30;67.42;100516.68;213851;1276;141353;-74
2022/02/23 19:19:00;;;;;;;9.60;5.80;;;;;;;3.25;67.48;100525.45;214626;1276;139961;-79
2022/02/23 19:24:10;;;;;;;10.10;4.30;;;;;;;3.17;67.39;100527.23;214691;1276;140207;-76
2022/02/23 19:29:21;;;;;;;15.40;5.00;;;;;;;3.05;67.38;100527.03;215676;1276;139928;-77
2022/02/23 19:34:26;;;;;;;15.20;4.70;;;;;;;2.97;67.73;100532.27;215737;1276;141055;-79
2022/02/23 19:39:31;;;;;;;12.00;5.20;;;;;;;2.93;67.61;100537.41;214750;1277;141071;-77
2022/02/23 19:44:36;;;;;;;10.40;5.00;;;;;;;2.88;67.52;100538.89;214725;1276;140467;-75
2022/02/23 19:49:40;;;;;;;18.40;5.70;;;;;;;2.83;67.76;100539.38;215559;1276;141173;-76
2022/02/23 19:54:47;;;;;;;15.30;7.70;;;;;;;2.76;67.85;100539.79;215913;1276;140767;-78
2022/02/23 19:59:52;;;;;;;13.60;6.40;;;;;;;2.68;67.96;100538.41;213358;1277;140662;-75
2022/02/23 20:04:59;;;;;;;10.60;5.40;;;;;;;2.60;67.99;100537.24;213996;1276;142369;-76
2022/02/23 20:10:05;;;;;;;17.10;6.90;;;;;;;2.50;67.94;100549.80;214344;1276;140143;-76
2022/02/23 20:15:10;;;;;;;15.80;6.10;;;;;;;2.37;68.01;100552.95;214805;1276;140179;-77
2022/02/23 20:20:15;;;;;;;17.30;5.90;;;;;;;2.22;68.29;100560.63;213374;1276;141099;-75
2022/02/23 20:25:24;;;;;;;17.50;5.90;;;;;;;2.12;68.33;100560.27;213109;1276;141914;-76
2022/02/23 20:30:29;;;;;;;24.00;9.60;;;;;;;2.01;68.64;100567.60;213966;1276;141085;-77
2022/02/23 20:35:34;;;;;;;26.50;11.90;;;;;;;1.91;68.88;100571.11;212973;1277;141866;-75
2022/02/23 20:40:45;;;;;;;19.10;7.40;;;;;;;1.79;68.85;100569.88;213448;1276;140731;-77
2022/02/23 20:45:51;;;;;;;15.20;6.90;;;;;;;1.66;69.37;100575.21;213832;1276;144199;-76
2022/02/23 20:50:56;;;;;;;14.60;7.90;;;;;;;1.52;69.65;100578.39;213433;1276;165809;-76
2022/02/23 20:56:01;;;;;;;18.00;8.30;;;;;;;1.39;69.64;100585.34;214042;1276;142513;-76
2022/02/23 21:01:05;;;;;;;12.70;7.20;;;;;;;1.29;70.07;100583.71;214529;1276;140321;-79
2022/02/23 21:06:10;;;;;;;20.20;7.80;;;;;;;1.16;70.10;100583.98;213510;1276;141150;-74
2022/02/23 21:11:15;;;;;;;22.20;6.90;;;;;;;1.04;70.15;100589.73;212796;1276;140891;-68
2022/02/23 21:16:21;;;;;;;15.20;6.90;;;;;;;0.93;70.41;100590.61;214716;1276;142861;-74
2022/02/23 21:21:26;;;;;;;14.90;7.00;;;;;;;0.81;70.31;100598.48;212962;1276;141195;-72
2022/02/23 21:26:31;;;;;;;14.10;6.60;;;;;;;0.70;70.31;100601.73;215158;1276;140861;-77
2022/02/23 21:31:38;;;;;;;23.30;8.00;;;;;;;0.61;70.73;100596.08;213241;1276;141117;-67
2022/02/23 21:36:43;;;;;;;15.80;8.20;;;;;;;0.52;71.00;100600.34;215317;1276;142814;-69
2022/02/23 21:41:51;;;;;;;13.70;7.90;;;;;;;0.38;70.91;100597.34;215507;1276;141081;-75
2022/02/23 21:46:57;;;;;;;23.40;10.30;;;;;;;0.29;71.21;100598.15;215266;1276;141651;-76
2022/02/23 21:52:04;;;;;;;15.20;8.00;;;;;;;0.24;71.43;100594.65;214097;1276;141467;-78
2022/02/23 21:57:08;;;;;;;19.00;7.10;;;;;;;0.16;71.54;100600.31;214114;1276;141369;-72
2022/02/23 22:02:15;;;;;;;16.90;6.90;;;;;;;0.14;71.94;100606.13;215163;1276;141028;-74
2022/02/23 22:07:19;;;;;;;29.60;11.50;;;;;;;0.17;72.44;100610.88;212965;1276;140853;-75
2022/02/23 22:12:25;;;;;;;17.10;9.10;;;;;;;0.17;72.60;100607.56;214418;1275;141642;-76
2022/02/23 22:17:30;;;;;;;35.10;12.10;;;;;;;0.09;72.51;100604.83;213143;1276;143615;-75
2022/02/23 22:22:34;;;;;;;27.80;11.60;;;;;;;0.06;73.02;100600.98;214524;1275;140778;-74
2022/02/23 22:27:39;;;;;;;20.80;10.30;;;;;;;0.00;72.72;100598.85;213543;1276;141001;-72
2022/02/23 22:32:42;;;;;;;29.90;12.30;;;;;;;-0.11;73.08;100601.67;213041;1276;142299;-73
2022/02/23 22:37:46;;;;;;;20.50;9.50;;;;;;;-0.19;73.10;100611.87;214038;1276;141918;-73
2022/02/23 22:42:50;;;;;;;23.70;9.90;;;;;;;-0.25;73.46;100612.09;213666;1276;140921;-70
2022/02/23 22:47:54;;;;;;;20.30;10.00;;;;;;;-0.32;73.73;100615.21;213212;1276;233114;-69
2022/02/23 22:52:58;;;;;;;26.30;11.10;;;;;;;-0.36;73.87;100616.64;213781;1276;142096;-74
2022/02/23 22:58:04;;;;;;;22.80;10.10;;;;;;;-0.40;73.99;100608.54;215214;1275;141333;-73
2022/02/23 23:03:09;;;;;;;24.50;9.70;;;;;;;-0.48;73.96;100606.70;212779;1276;140837;-76
2022/02/23 23:08:13;;;;;;;22.10;10.70;;;;;;;-0.58;74.00;100601.52;214348;1275;140619;-78
2022/02/23 23:13:17;;;;;;;31.20;13.00;;;;;;;-0.66;74.29;100601.41;213577;1276;140495;-70
2022/02/23 23:18:24;;;;;;;33.30;14.60;;;;;;;-0.72;74.59;100602.66;213013;1276;141166;-67
2022/02/23 23:23:28;;;;;;;37.00;14.60;;;;;;;-0.78;74.94;100605.27;213936;1276;140418;-71
2022/02/23 23:28:33;;;;;;;30.40;16.80;;;;;;;-0.83;75.01;100598.81;214403;1276;140288;-77
2022/02/23 23:33:37;;;;;;;46.80;16.30;;;;;;;-0.87;75.34;100591.82;213949;1277;141133;-69